Time;durP1;ratioP1;P1;durP2;ratioP2;P2;SDS_P1;SDS_P2;PMS_P1;PMS_P2;Temp;Humidity;BMP_temperature;BMP_pressure;BME280_temperature;BME280_humidity;BME280_pressure;Samples;Min_cycle;Max_cycle;Signal;HPM_P1;HPM_P2
2023/04/26 00:01:26;;;;;;;3.73;3.43;;;;;;;3.45;nan;96830.91;4909042;28;20539;-68
2023/04/26 00:03:54;;;;;;;4.47;4.00;;;;;;;3.46;nan;96843.03;4958379;28;20210;-69
2023/04/26 00:06:22;;;;;;;4.40;3.77;;;;;;;3.37;nan;96845.69;4933269;28;23502;-69
2023/04/26 00:08:51;;;;;;;4.40;3.63;;;;;;;3.32;nan;96846.97;4958471;28;20248;-69
2023/04/26 00:11:19;;;;;;;4.17;3.73;;;;;;;3.31;nan;96845.31;4946513;28;20212;-69
2023/04/26 00:13:47;;;;;;;4.87;3.70;;;;;;;3.29;nan;96849.88;4942538;28;20860;-68
2023/04/26 00:16:15;;;;;;;4.50;4.10;;;;;;;3.26;nan;96846.75;4896771;28;20470;-69
2023/04/26 00:18:43;;;;;;;3.60;3.30;;;;;;;3.29;nan;96846.44;4936338;28;20213;-70
2023/04/26 00:21:11;;;;;;;4.33;3.87;;;;;;;3.30;nan;96851.53;4955465;28;20212;-70
2023/04/26 00:23:38;;;;;;;4.60;3.60;;;;;;;3.23;nan;96842.59;4930049;28;20276;-69
2023/04/26 00:26:07;;;;;;;4.47;4.10;;;;;;;3.12;nan;96846.25;4954143;28;20253;-70
2023/04/26 00:28:35;;;;;;;4.57;4.27;;;;;;;3.06;nan;96851.25;4937481;28;21148;-70
2023/04/26 00:31:03;;;;;;;10.30;4.43;;;;;;;2.90;nan;96852.66;4921698;28;20276;-69
2023/04/26 00:33:30;;;;;;;5.93;4.57;;;;;;;2.78;nan;96851.22;4940146;28;20608;-70
2023/04/26 00:35:58;;;;;;;4.33;3.93;;;;;;;2.79;nan;96852.84;4957574;28;20651;-70
2023/04/26 00:38:26;;;;;;;4.60;4.20;;;;;;;2.84;nan;96851.47;4931023;28;20245;-69
2023/04/26 00:40:53;;;;;;;12.10;4.60;;;;;;;2.86;nan;96854.78;4949381;28;20263;-68
2023/04/26 00:43:22;;;;;;;4.40;4.10;;;;;;;2.72;nan;96852.59;4935936;28;21125;-68
2023/04/26 00:45:50;;;;;;;4.47;3.97;;;;;;;2.68;nan;96856.47;4888539;28;20890;-67
2023/04/26 00:48:18;;;;;;;4.87;4.43;;;;;;;2.63;nan;96843.81;4958639;28;20986;-70
2023/04/26 00:50:47;;;;;;;4.93;4.43;;;;;;;2.68;nan;96846.00;4929197;28;20222;-69
2023/04/26 00:53:15;;;;;;;4.67;4.37;;;;;;;2.56;nan;96851.41;4932846;28;20633;-69
2023/04/26 00:55:43;;;;;;;4.50;4.13;;;;;;;2.44;nan;96842.06;4958715;28;20455;-70
2023/04/26 00:58:10;;;;;;;4.77;4.33;;;;;;;2.40;nan;96841.53;4951476;28;20421;-70
2023/04/26 01:00:40;;;;;;;7.20;4.73;;;;;;;2.34;nan;96841.25;4902697;28;20221;-67
2023/04/26 01:03:08;;;;;;;4.80;4.50;;;;;;;2.48;nan;96847.84;4958169;28;20661;-69
2023/04/26 01:05:36;;;;;;;4.63;4.23;;;;;;;2.56;nan;96854.03;4935491;28;20210;-68
2023/04/26 01:08:04;;;;;;;5.93;5.13;;;;;;;2.59;nan;96851.13;4934427;28;20249;-69
2023/04/26 01:10:32;;;;;;;5.13;4.67;;;;;;;2.60;nan;96842.31;4957487;28;20260;-70
2023/04/26 01:13:01;;;;;;;6.80;4.97;;;;;;;2.68;nan;96844.22;4958012;28;20209;-68
2023/04/26 01:15:32;;;;;;;5.50;5.00;;;;;;;2.67;nan;96845.19;4941310;28;20508;-69
2023/04/26 01:18:01;;;;;;;4.53;3.90;;;;;;;2.68;nan;96849.47;4911336;28;20796;-68
2023/04/26 01:20:29;;;;;;;4.43;4.07;;;;;;;2.61;nan;96845.75;4933614;28;20521;-69
2023/04/26 01:22:58;;;;;;;5.03;4.57;;;;;;;2.52;nan;96849.22;4933925;28;20888;-68
2023/04/26 01:25:26;;;;;;;4.93;4.20;;;;;;;2.51;nan;96848.41;4954137;28;20742;-70
2023/04/26 01:27:53;;;;;;;4.33;3.93;;;;;;;2.53;nan;96853.47;4956457;28;20668;-69
2023/04/26 01:30:21;;;;;;;4.60;4.20;;;;;;;2.49;nan;96852.09;4933997;28;20226;-70
2023/04/26 01:32:49;;;;;;;4.53;4.17;;;;;;;2.39;nan;96852.13;4909415;28;20680;-68
2023/04/26 01:35:17;;;;;;;6.30;4.20;;;;;;;2.40;nan;96851.16;4954509;28;20237;-69
2023/04/26 01:37:44;;;;;;;5.30;4.37;;;;;;;2.35;nan;96861.22;4916237;28;23322;-70
2023/04/26 01:40:14;;;;;;;4.93;4.53;;;;;;;2.31;nan;96858.06;4963898;28;20268;-70
2023/04/26 01:42:41;;;;;;;4.60;4.20;;;;;;;2.29;nan;96855.59;4927267;28;20583;-68
2023/04/26 01:45:10;;;;;;;5.23;4.83;;;;;;;2.22;nan;96864.13;4932809;28;20206;-69
2023/04/26 01:47:38;;;;;;;4.67;4.27;;;;;;;2.21;nan;96862.47;4953813;28;20234;-69
2023/04/26 01:50:07;;;;;;;5.00;4.50;;;;;;;1.92;nan;96864.13;4922501;28;20214;-70
2023/04/26 01:52:35;;;;;;;4.40;4.00;;;;;;;1.68;nan;96873.19;4939341;28;20206;-70
2023/04/26 01:55:02;;;;;;;5.17;4.67;;;;;;;1.69;nan;96876.63;4937017;28;20682;-70
2023/04/26 01:57:31;;;;;;;4.80;4.30;;;;;;;1.56;nan;96864.66;4955848;28;20369;-69
2023/04/26 02:00:01;;;;;;;6.07;5.50;;;;;;;1.54;nan;96865.75;4954683;28;20896;-68
2023/04/26 02:02:29;;;;;;;5.57;5.07;;;;;;;1.51;nan;96874.66;4955158;28;20431;-69
2023/04/26 02:04:56;;;;;;;5.60;4.43;;;;;;;1.50;nan;96874.81;4924694;28;20590;-70
2023/04/26 02:07:24;;;;;;;7.27;4.50;;;;;;;1.52;nan;96871.13;4943068;28;20233;-70
2023/04/26 02:09:52;;;;;;;4.57;4.17;;;;;;;1.52;nan;96862.44;4925767;28;20217;-69
2023/04/26 02:12:19;;;;;;;7.33;5.07;;;;;;;1.51;nan;96873.84;4958792;28;20729;-70
2023/04/26 02:14:48;;;;;;;5.50;5.00;;;;;;;1.33;nan;96869.28;4959821;28;20226;-69
2023/04/26 02:17:16;;;;;;;4.93;4.43;;;;;;;1.29;nan;96865.28;4928085;28;20230;-69
2023/04/26 02:19:45;;;;;;;6.33;4.80;;;;;;;1.22;nan;96867.59;4908266;28;20919;-69
2023/04/26 02:22:12;;;;;;;5.93;4.60;;;;;;;1.17;nan;96858.50;4943395;28;20346;-69
2023/04/26 02:24:40;;;;;;;5.13;4.63;;;;;;;1.24;nan;96868.28;4933940;28;20284;-69
2023/04/26 02:27:07;;;;;;;4.77;4.37;;;;;;;1.26;nan;96861.16;4961177;28;20910;-69
2023/04/26 02:29:35;;;;;;;6.27;4.43;;;;;;;1.21;nan;96868.56;4960059;28;20265;-70
2023/04/26 02:32:12;;;;;;;4.47;4.17;;;;;;;1.24;nan;96872.69;4940686;28;20240;-69
2023/04/26 02:34:39;;;;;;;5.63;4.57;;;;;;;1.13;nan;96868.38;4959488;28;20761;-69
2023/04/26 02:37:07;;;;;;;7.30;4.50;;;;;;;1.10;nan;96869.50;4919554;28;20237;-70
2023/04/26 02:39:35;;;;;;;5.00;4.60;;;;;;;1.05;nan;96874.28;4919602;28;20362;-70
2023/04/26 02:42:03;;;;;;;5.20;4.70;;;;;;;0.97;nan;96879.34;4961568;28;20313;-69
2023/04/26 02:44:31;;;;;;;5.27;4.80;;;;;;;0.93;nan;96870.94;4959264;28;20210;-70
2023/04/26 02:46:58;;;;;;;6.67;4.50;;;;;;;0.90;nan;96883.41;4938976;28;20434;-69
2023/04/26 02:49:28;;;;;;;6.33;5.07;;;;;;;0.96;nan;96875.88;4959025;28;20229;-70
2023/04/26 02:51:55;;;;;;;6.63;4.67;;;;;;;0.95;nan;96874.22;4917012;28;22259;-69
2023/04/26 02:54:23;;;;;;;4.87;4.30;;;;;;;0.89;nan;96874.75;4915751;28;20860;-70
2023/04/26 02:56:51;;;;;;;4.90;4.47;;;;;;;0.94;nan;96879.56;4956588;28;20233;-69
2023/04/26 02:59:19;;;;;;;6.33;5.73;;;;;;;0.90;nan;96876.41;4955496;28;20221;-70
2023/04/26 03:01:46;;;;;;;4.60;4.30;;;;;;;0.90;nan;96872.97;4936967;28;20478;-69
2023/04/26 03:04:14;;;;;;;6.90;4.80;;;;;;;0.81;nan;96878.00;4961180;28;20214;-71
2023/04/26 03:06:44;;;;;;;5.50;5.10;;;;;;;0.82;nan;96878.84;4903208;28;20238;-69
2023/04/26 03:09:11;;;;;;;7.70;4.73;;;;;;;0.75;nan;96873.31;4940558;28;20225;-69
2023/04/26 03:11:39;;;;;;;6.77;6.07;;;;;;;0.73;nan;96885.66;4936224;28;20214;-69
2023/04/26 03:14:07;;;;;;;6.73;6.00;;;;;;;0.62;nan;96894.38;4933133;28;20268;-70
2023/04/26 03:16:40;;;;;;;5.17;4.57;;;;;;;0.66;nan;96887.16;4934897;28;20237;-70
2023/04/26 03:19:08;;;;;;;5.97;5.50;;;;;;;0.63;nan;96896.03;4955762;28;20205;-70
2023/04/26 03:21:37;;;;;;;4.90;4.47;;;;;;;0.59;nan;96888.63;4960520;28;20241;-69
2023/04/26 03:24:06;;;;;;;4.57;4.17;;;;;;;0.66;nan;96887.16;4898642;28;21575;-70
2023/04/26 03:26:34;;;;;;;5.37;4.87;;;;;;;0.65;nan;96891.50;4933815;28;20283;-70
2023/04/26 03:29:02;;;;;;;4.20;3.90;;;;;;;0.46;nan;96897.44;4948888;28;20233;-69
2023/04/26 03:31:30;;;;;;;6.20;5.03;;;;;;;0.43;nan;96889.88;4956969;28;20217;-68
2023/04/26 03:33:57;;;;;;;6.00;4.90;;;;;;;0.46;nan;96896.63;4931018;28;20982;-70
2023/04/26 03:36:27;;;;;;;6.13;4.83;;;;;;;0.44;nan;96904.56;4957976;28;20444;-68
2023/04/26 03:38:55;;;;;;;5.17;4.67;;;;;;;0.39;nan;96902.34;4918173;28;20585;-69
2023/04/26 03:41:24;;;;;;;6.87;5.27;;;;;;;0.43;nan;96908.13;4923358;28;20249;-68
2023/04/26 03:43:52;;;;;;;7.37;4.60;;;;;;;0.43;nan;96908.13;4957410;28;21331;-69
2023/04/26 03:46:19;;;;;;;7.43;5.70;;;;;;;0.41;nan;96907.44;4960800;28;20752;-69
2023/04/26 03:48:47;;;;;;;5.67;5.27;;;;;;;0.48;nan;96918.19;4942241;28;20233;-66
2023/04/26 03:51:15;;;;;;;5.80;5.30;;;;;;;0.47;nan;96911.31;4957643;28;20332;-68
2023/04/26 03:53:45;;;;;;;5.57;4.67;;;;;;;0.55;nan;96911.50;4917637;28;20308;-69
2023/04/26 03:56:13;;;;;;;6.60;6.00;;;;;;;0.38;nan;96918.94;4945803;28;20844;-71
2023/04/26 03:58:42;;;;;;;7.20;6.47;;;;;;;0.42;nan;96909.91;4932647;28;20240;-70
2023/04/26 04:01:10;;;;;;;8.47;7.63;;;;;;;0.46;nan;96915.69;4955677;28;20214;-70
2023/04/26 04:03:37;;;;;;;8.30;6.47;;;;;;;0.55;nan;96924.53;4914735;28;20868;-69
2023/04/26 04:06:07;;;;;;;7.60;5.50;;;;;;;0.62;nan;96922.25;4967950;28;20733;-68
2023/04/26 04:08:35;;;;;;;6.93;5.83;;;;;;;0.59;nan;96920.72;4916797;28;20917;-67
2023/04/26 04:11:03;;;;;;;7.27;5.43;;;;;;;0.76;nan;96919.31;4944266;28;20210;-67
2023/04/26 04:13:31;;;;;;;6.73;5.40;;;;;;;0.88;nan;96924.44;4938851;28;20225;-69
2023/04/26 04:16:00;;;;;;;6.37;5.30;;;;;;;0.94;nan;96923.91;4961542;28;20217;-68
2023/04/26 04:18:30;;;;;;;6.20;5.60;;;;;;;0.97;nan;96923.69;4940412;28;20233;-69
2023/04/26 04:20:58;;;;;;;7.37;5.83;;;;;;;0.95;nan;96933.44;4938913;28;20287;-69
2023/04/26 04:23:26;;;;;;;6.80;5.97;;;;;;;0.94;nan;96931.75;4938873;28;20217;-69
2023/04/26 04:25:54;;;;;;;6.67;5.13;;;;;;;1.05;nan;96933.44;4910253;28;21669;-70
2023/04/26 04:28:22;;;;;;;6.03;5.43;;;;;;;1.21;nan;96931.19;4938820;28;20241;-68
2023/04/26 04:30:50;;;;;;;5.90;5.40;;;;;;;1.28;nan;96931.50;4940904;28;20205;-68
2023/04/26 04:33:19;;;;;;;6.57;5.23;;;;;;;1.36;nan;96931.69;4940847;28;20221;-69
2023/04/26 04:35:47;;;;;;;6.50;5.67;;;;;;;1.38;nan;96932.38;4959462;28;20366;-69
2023/04/26 04:38:14;;;;;;;5.20;4.80;;;;;;;1.34;nan;96930.97;4954713;28;20769;-68
2023/04/26 04:40:42;;;;;;;6.40;5.87;;;;;;;1.34;nan;96930.97;4919749;28;20228;-69
2023/04/26 04:43:11;;;;;;;5.40;4.93;;;;;;;1.29;nan;96925.31;4917437;28;20814;-67
2023/04/26 04:45:39;;;;;;;6.30;5.40;;;;;;;1.23;nan;96933.66;4957043;28;20279;-67
2023/04/26 04:48:08;;;;;;;8.50;7.43;;;;;;;1.23;nan;96929.28;4917963;28;22047;-67
2023/04/26 04:50:37;;;;;;;6.03;5.53;;;;;;;1.33;nan;96931.94;4961450;28;20236;-66
2023/04/26 04:53:05;;;;;;;5.57;5.07;;;;;;;1.43;nan;96939.78;4934116;28;20440;-67
2023/04/26 04:55:32;;;;;;;6.80;6.30;;;;;;;1.51;nan;96942.56;4916697;28;20221;-67
2023/04/26 04:58:00;;;;;;;6.57;5.90;;;;;;;1.63;nan;96940.66;4915330;28;20584;-65
2023/04/26 05:00:28;;;;;;;6.43;5.77;;;;;;;1.71;nan;96945.22;4961211;28;20214;-66
2023/04/26 05:02:56;;;;;;;6.83;5.90;;;;;;;1.83;nan;96943.34;4938472;28;21051;-68
2023/04/26 05:05:23;;;;;;;7.23;6.47;;;;;;;1.95;nan;96944.06;4961281;28;20205;-67
2023/04/26 05:07:53;;;;;;;7.67;6.97;;;;;;;2.05;nan;96944.88;4949129;28;20731;-68
2023/04/26 05:10:20;;;;;;;6.67;6.10;;;;;;;2.20;nan;96950.53;4957905;28;20709;-66
2023/04/26 05:12:48;;;;;;;7.27;6.33;;;;;;;2.36;nan;96950.00;4913209;28;20578;-69
2023/04/26 05:15:16;;;;;;;5.67;5.13;;;;;;;2.50;nan;96946.13;4908170;28;20202;-67
2023/04/26 05:17:44;;;;;;;6.13;5.53;;;;;;;2.68;nan;96943.63;4943573;28;20561;-66
2023/04/26 05:20:13;;;;;;;5.00;4.47;;;;;;;2.83;nan;96946.63;4964151;28;20689;-67
2023/04/26 05:22:41;;;;;;;5.83;5.33;;;;;;;3.02;nan;96944.94;4961072;28;20707;-66
2023/04/26 05:25:10;;;;;;;6.53;5.00;;;;;;;3.10;nan;96947.66;4961498;28;20280;-67
2023/04/26 05:27:38;;;;;;;5.77;5.30;;;;;;;3.16;nan;96951.50;4928470;28;20474;-67
2023/04/26 05:30:06;;;;;;;7.67;5.13;;;;;;;3.28;nan;96952.16;4922820;28;20292;-67
2023/04/26 05:32:34;;;;;;;5.93;5.10;;;;;;;3.39;nan;96953.75;4941938;28;20409;-67
2023/04/26 05:35:02;;;;;;;5.90;5.27;;;;;;;3.51;nan;96959.63;4967818;28;20212;-67
2023/04/26 05:37:30;;;;;;;9.37;5.83;;;;;;;3.65;nan;96963.56;4956640;28;20264;-67
2023/04/26 05:39:58;;;;;;;4.83;4.43;;;;;;;3.71;nan;96962.97;4963097;28;21174;-67
2023/04/26 05:42:27;;;;;;;6.70;5.50;;;;;;;3.78;nan;96968.47;4934659;28;20213;-66
2023/04/26 05:44:57;;;;;;;5.37;4.87;;;;;;;3.84;nan;96968.72;4925282;28;20213;-66
2023/04/26 05:47:25;;;;;;;8.77;5.33;;;;;;;3.94;nan;96971.25;4935003;28;20710;-66
2023/04/26 05:49:53;;;;;;;5.73;4.57;;;;;;;4.08;nan;96977.00;4963630;28;20709;-68
2023/04/26 05:52:20;;;;;;;4.67;4.27;;;;;;;4.28;nan;96977.69;4957560;28;20803;-68
2023/04/26 05:54:48;;;;;;;7.50;4.17;;;;;;;4.31;nan;96983.44;4963013;28;20282;-67
2023/04/26 05:57:16;;;;;;;4.47;3.60;;;;;;;4.42;nan;96976.34;4963264;28;20310;-68
2023/04/26 05:59:46;;;;;;;7.33;4.40;;;;;;;4.54;nan;96976.91;4921494;28;20330;-67
2023/04/26 06:02:14;;;;;;;5.07;4.57;;;;;;;4.65;nan;96966.22;4938285;28;20226;-68
2023/04/26 06:04:42;;;;;;;6.40;4.67;;;;;;;5.19;nan;96971.34;4943732;28;20786;-68
2023/04/26 06:07:10;;;;;;;5.30;4.63;;;;;;;5.60;nan;96965.47;4963448;28;20727;-68
2023/04/26 06:09:37;;;;;;;4.93;4.40;;;;;;;6.40;nan;96966.03;4958674;28;20424;-67
2023/04/26 06:12:05;;;;;;;4.43;3.97;;;;;;;6.50;nan;96971.16;4963719;28;20268;-67
2023/04/26 06:14:33;;;;;;;6.67;4.07;;;;;;;6.23;nan;96966.03;4927275;28;20746;-68
2023/04/26 06:17:02;;;;;;;7.20;4.30;;;;;;;5.88;nan;96980.22;4937676;28;20233;-67
2023/04/26 06:19:30;;;;;;;5.70;4.43;;;;;;;5.87;nan;96976.75;4940713;28;20668;-67
2023/04/26 06:21:57;;;;;;;4.23;3.93;;;;;;;5.85;nan;96980.50;4964527;28;20205;-67
2023/04/26 06:24:25;;;;;;;4.63;4.23;;;;;;;5.85;nan;96983.13;4953939;28;20213;-67
2023/04/26 06:26:53;;;;;;;4.53;4.13;;;;;;;5.87;nan;96984.63;4956842;28;20245;-68
2023/04/26 06:29:21;;;;;;;5.63;3.73;;;;;;;5.92;nan;96984.16;4918895;28;20217;-68
2023/04/26 06:31:49;;;;;;;5.10;4.10;;;;;;;5.96;nan;96980.25;4925853;28;20214;-67
2023/04/26 06:34:18;;;;;;;3.70;3.40;;;;;;;5.86;nan;96971.63;4949906;28;21290;-67
2023/04/26 06:36:47;;;;;;;4.53;3.87;;;;;;;6.01;nan;96980.59;4958368;28;20783;-68
2023/04/26 06:39:16;;;;;;;7.80;4.10;;;;;;;5.87;nan;96982.00;4959880;28;20209;-68
2023/04/26 06:41:43;;;;;;;4.03;3.60;;;;;;;5.68;nan;96985.72;4964701;28;20320;-66
2023/04/26 06:44:11;;;;;;;4.97;3.70;;;;;;;5.93;nan;96988.44;4952347;28;20717;-68
2023/04/26 06:46:40;;;;;;;4.17;3.87;;;;;;;6.08;nan;96994.75;4905252;28;20535;-67
2023/04/26 06:49:09;;;;;;;5.30;4.13;;;;;;;6.17;nan;96989.50;4963856;28;20210;-67
2023/04/26 06:51:38;;;;;;;3.03;2.83;;;;;;;6.26;nan;96987.72;4941540;28;20225;-67
2023/04/26 06:54:06;;;;;;;3.97;3.67;;;;;;;6.55;nan;96992.53;4956632;28;20981;-68
2023/04/26 06:56:33;;;;;;;7.30;3.37;;;;;;;6.61;nan;96993.72;4960297;28;20242;-66
2023/04/26 06:59:02;;;;;;;3.67;3.37;;;;;;;6.75;nan;96992.25;4961067;28;20659;-67
2023/04/26 07:01:32;;;;;;;4.23;3.00;;;;;;;6.77;nan;96985.81;4899311;28;23624;-67
2023/04/26 07:04:01;;;;;;;4.23;3.00;;;;;;;6.88;nan;96983.84;4958215;28;20201;-67
2023/04/26 07:06:30;;;;;;;3.50;3.20;;;;;;;6.79;nan;96998.81;4938402;28;20831;-67
2023/04/26 07:09:01;;;;;;;3.17;2.87;;;;;;;6.68;nan;97004.41;4959975;28;20378;-68
2023/04/26 07:11:29;;;;;;;3.30;3.00;;;;;;;6.75;nan;96997.50;4946909;28;20222;-67
2023/04/26 07:13:56;;;;;;;3.53;2.90;;;;;;;6.53;nan;96994.50;4962488;28;20945;-67
2023/04/26 07:16:24;;;;;;;4.33;3.30;;;;;;;6.42;nan;96993.00;4900517;28;20222;-68
2023/04/26 07:18:52;;;;;;;4.40;3.00;;;;;;;6.76;nan;96991.25;4946355;28;21022;-67
2023/04/26 07:21:20;;;;;;;2.53;2.17;;;;;;;6.93;nan;96995.50;4940885;28;22261;-67
2023/04/26 07:23:47;;;;;;;3.27;2.60;;;;;;;6.89;nan;97003.94;4954112;28;20456;-66
2023/04/26 07:26:18;;;;;;;4.37;2.80;;;;;;;7.12;nan;96985.63;4957338;28;20245;-67
2023/04/26 07:28:45;;;;;;;3.00;2.70;;;;;;;6.86;nan;96989.25;4963589;28;20209;-66
2023/04/26 07:31:21;;;;;;;4.70;3.50;;;;;;;7.22;nan;96988.91;4942230;28;22190;-67
2023/04/26 07:33:49;;;;;;;3.07;2.70;;;;;;;7.11;nan;96989.25;4956190;28;20617;-67
2023/04/26 07:36:17;;;;;;;5.10;2.50;;;;;;;7.10;nan;96998.97;4948181;28;20288;-67
2023/04/26 07:38:45;;;;;;;3.27;2.40;;;;;;;6.70;nan;96999.81;4946016;28;20236;-66
2023/04/26 07:41:15;;;;;;;2.70;2.40;;;;;;;7.04;nan;96993.56;4955045;28;20202;-67
2023/04/26 07:43:44;;;;;;;2.47;2.00;;;;;;;7.26;nan;96994.69;4952403;28;20499;-67
2023/04/26 07:46:11;;;;;;;2.70;2.50;;;;;;;7.71;nan;97000.31;4955719;28;20222;-67
2023/04/26 07:48:39;;;;;;;5.93;2.67;;;;;;;7.96;nan;96998.41;4918345;28;20432;-66
2023/04/26 07:51:08;;;;;;;2.80;2.60;;;;;;;7.92;nan;97004.19;4958152;28;20665;-67
2023/04/26 07:53:35;;;;;;;3.37;2.53;;;;;;;7.67;nan;96999.00;4932010;28;20832;-67
2023/04/26 07:56:05;;;;;;;4.53;2.77;;;;;;;7.56;nan;96989.63;4961790;28;20259;-67
2023/04/26 07:58:32;;;;;;;3.13;2.83;;;;;;;8.03;nan;96995.09;4950800;28;20225;-66
2023/04/26 08:01:02;;;;;;;3.17;2.80;;;;;;;8.20;nan;96995.81;4961712;28;20206;-66
2023/04/26 08:03:30;;;;;;;2.97;2.77;;;;;;;8.07;nan;96989.28;4919205;28;20931;-66
2023/04/26 08:05:58;;;;;;;2.23;2.03;;;;;;;8.07;nan;96993.75;4957132;28;20628;-68
2023/04/26 08:08:26;;;;;;;6.47;3.50;;;;;;;8.30;nan;96996.41;4930781;28;20379;-66
2023/04/26 08:10:54;;;;;;;2.90;2.30;;;;;;;8.00;nan;96988.31;4955920;28;20234;-67
2023/04/26 08:13:22;;;;;;;2.83;2.50;;;;;;;8.36;nan;96989.63;4955627;28;20202;-67
2023/04/26 08:15:49;;;;;;;2.47;2.33;;;;;;;8.51;nan;96995.81;4960642;28;20708;-66
2023/04/26 08:18:18;;;;;;;2.80;2.60;;;;;;;8.52;nan;96994.81;4956700;28;20241;-67
2023/04/26 08:20:46;;;;;;;3.73;2.80;;;;;;;8.21;nan;96992.19;4913961;28;20213;-66
2023/04/26 08:23:14;;;;;;;2.87;2.43;;;;;;;8.15;nan;96992.88;4936907;28;20213;-68
2023/04/26 08:25:41;;;;;;;3.93;2.80;;;;;;;7.98;nan;96990.31;4950998;28;20320;-66
2023/04/26 08:28:13;;;;;;;3.63;2.97;;;;;;;8.76;nan;96990.38;4959532;28;20226;-66
2023/04/26 08:30:41;;;;;;;5.00;2.80;;;;;;;8.74;nan;96991.53;4961760;28;20275;-66
2023/04/26 08:33:09;;;;;;;3.13;2.83;;;;;;;8.71;nan;96995.34;4958086;28;20253;-67
2023/04/26 08:35:38;;;;;;;4.37;2.57;;;;;;;8.49;nan;97005.75;4913401;28;20279;-66
2023/04/26 08:38:06;;;;;;;4.37;2.80;;;;;;;8.30;nan;97000.84;4936299;28;20737;-67
2023/04/26 08:40:34;;;;;;;4.40;2.57;;;;;;;8.12;nan;97004.59;4959043;28;20217;-67
2023/04/26 08:43:02;;;;;;;4.80;2.43;;;;;;;7.93;nan;97004.00;4963531;28;20260;-66
2023/04/26 08:45:30;;;;;;;3.83;2.37;;;;;;;7.92;nan;97006.84;4957127;28;20292;-67
2023/04/26 08:48:03;;;;;;;2.33;2.03;;;;;;;7.92;nan;97012.09;4963512;28;20645;-67
2023/04/26 08:50:33;;;;;;;2.50;2.30;;;;;;;7.93;nan;97004.00;4923876;28;20862;-67
2023/04/26 08:53:02;;;;;;;2.50;2.40;;;;;;;8.24;nan;96999.75;4960372;28;20209;-67
2023/04/26 08:55:30;;;;;;;2.70;2.50;;;;;;;8.31;nan;96998.06;4938364;28;20304;-67
2023/04/26 08:57:58;;;;;;;2.60;2.40;;;;;;;8.50;nan;97001.25;4965729;28;20311;-67
2023/04/26 09:00:26;;;;;;;2.97;2.33;;;;;;;8.55;nan;97001.59;4944428;28;20209;-67
2023/04/26 09:02:54;;;;;;;3.20;2.43;;;;;;;8.47;nan;97001.59;4966727;28;20536;-67
2023/04/26 09:05:23;;;;;;;3.20;2.67;;;;;;;8.10;nan;97003.94;4957508;28;20214;-67
2023/04/26 09:07:52;;;;;;;3.13;2.93;;;;;;;8.19;nan;97004.75;4920220;28;20244;-66
2023/04/26 09:10:21;;;;;;;2.40;2.20;;;;;;;8.79;nan;97003.22;4940175;28;20217;-67
2023/04/26 09:12:52;;;;;;;2.70;2.23;;;;;;;9.01;nan;96989.34;4962067;28;20229;-67
2023/04/26 09:15:20;;;;;;;2.63;2.20;;;;;;;8.94;nan;97007.72;4960987;28;20213;-68
2023/04/26 09:17:50;;;;;;;4.30;2.60;;;;;;;8.60;nan;97006.31;4964843;28;20987;-67
2023/04/26 09:20:23;;;;;;;2.80;2.60;;;;;;;8.35;nan;96998.56;4956240;28;20214;-68
2023/04/26 09:22:52;;;;;;;3.33;2.43;;;;;;;8.36;nan;96997.56;4927018;28;20221;-68
2023/04/26 09:25:28;;;;;;;2.77;2.60;;;;;;;8.38;nan;97001.63;4942987;28;20217;-68
2023/04/26 09:27:56;;;;;;;2.67;2.40;;;;;;;8.16;nan;96997.16;4961101;28;20576;-67
2023/04/26 09:30:25;;;;;;;3.30;2.97;;;;;;;8.15;nan;96992.88;4955059;28;20271;-68
2023/04/26 09:32:55;;;;;;;2.90;2.43;;;;;;;8.13;nan;96992.22;4948631;28;20234;-67
2023/04/26 09:35:25;;;;;;;3.70;2.43;;;;;;;8.42;nan;96996.84;4953818;28;20209;-69
2023/04/26 09:37:55;;;;;;;3.63;2.50;;;;;;;8.74;nan;96987.09;4926337;28;20241;-67
2023/04/26 09:40:30;;;;;;;3.17;2.57;;;;;;;9.26;nan;96979.34;4930067;28;20680;-67
2023/04/26 09:42:59;;;;;;;3.57;2.63;;;;;;;9.88;nan;96982.66;4962900;28;20945;-67
2023/04/26 09:45:27;;;;;;;2.67;2.40;;;;;;;9.72;nan;96983.66;4959390;28;20260;-67
2023/04/26 09:47:56;;;;;;;3.93;2.63;;;;;;;9.72;nan;96991.59;4947971;28;20421;-67
2023/04/26 09:50:28;;;;;;;4.37;3.00;;;;;;;9.34;nan;96991.69;4952970;28;20210;-68
2023/04/26 09:52:56;;;;;;;4.00;3.07;;;;;;;8.94;nan;97002.44;4958707;28;20221;-67
2023/04/26 09:55:29;;;;;;;2.67;2.10;;;;;;;8.81;nan;96995.09;4902412;28;20696;-69
2023/04/26 09:58:08;;;;;;;3.23;2.90;;;;;;;8.45;nan;97004.41;4965780;28;20224;-67
2023/04/26 10:00:38;;;;;;;3.37;2.50;;;;;;;8.72;nan;96999.66;4963539;28;20620;-68
2023/04/26 10:03:08;;;;;;;2.70;2.60;;;;;;;9.51;nan;96987.03;4961711;28;20208;-68
2023/04/26 10:05:36;;;;;;;3.70;2.63;;;;;;;10.04;nan;96989.56;4953704;28;20419;-67
2023/04/26 10:08:06;;;;;;;3.20;2.33;;;;;;;10.16;nan;96979.28;4958648;28;20233;-67
2023/04/26 10:10:36;;;;;;;2.97;2.77;;;;;;;10.46;nan;96989.84;4899141;28;20719;-68
2023/04/26 10:13:05;;;;;;;3.47;3.07;;;;;;;10.19;nan;96986.06;4948654;28;20288;-67
2023/04/26 10:15:33;;;;;;;2.90;2.67;;;;;;;9.96;nan;96989.66;4955003;28;20216;-68
2023/04/26 10:18:01;;;;;;;3.13;2.70;;;;;;;9.93;nan;96988.22;4962459;28;20242;-66
2023/04/26 10:20:29;;;;;;;3.00;2.80;;;;;;;9.93;nan;96979.44;4961094;28;20561;-67
2023/04/26 10:23:00;;;;;;;4.40;2.80;;;;;;;9.42;nan;96981.00;4952404;28;20765;-66
2023/04/26 10:25:39;;;;;;;4.27;3.10;;;;;;;9.09;nan;96981.34;4920675;28;20979;-69
2023/04/26 10:28:07;;;;;;;3.27;3.07;;;;;;;9.35;nan;96974.81;4941350;28;20241;-67
2023/04/26 10:30:54;;;;;;;3.17;2.77;;;;;;;10.10;nan;96972.09;4953663;28;20282;-69
2023/04/26 10:33:22;;;;;;;5.90;3.57;;;;;;;9.93;nan;96969.69;4960184;28;20233;-67
2023/04/26 10:36:02;;;;;;;4.73;3.27;;;;;;;9.63;nan;96972.34;4961344;28;20214;-66
2023/04/26 10:38:30;;;;;;;3.53;3.23;;;;;;;9.62;nan;96970.72;4957768;28;20279;-67
2023/04/26 10:41:30;;;;;;;3.93;3.10;;;;;;;9.80;nan;96970.34;4921824;28;20772;-69
2023/04/26 10:44:00;;;;;;;3.10;2.60;;;;;;;9.56;nan;96972.25;4943653;28;20632;-66
2023/04/26 10:46:39;;;;;;;3.27;3.07;;;;;;;9.34;nan;96975.81;4952986;28;20236;-66
2023/04/26 10:49:17;;;;;;;2.70;2.50;;;;;;;9.07;nan;96964.84;4962965;28;20233;-67
2023/04/26 10:52:12;;;;;;;3.17;2.63;;;;;;;9.19;nan;96973.16;4962606;28;20213;-66
2023/04/26 10:54:54;;;;;;;3.47;3.27;;;;;;;9.62;nan;96964.59;4959628;28;20202;-67
2023/04/26 10:57:25;;;;;;;2.90;2.60;;;;;;;10.03;nan;96956.13;4905768;28;21990;-67
2023/04/26 11:00:28;;;;;;;2.93;2.73;;;;;;;10.18;nan;96953.47;4965017;28;20267;-67
2023/04/26 11:03:07;;;;;;;3.43;3.00;;;;;;;10.33;nan;96945.47;4900218;29;21009;-66
2023/04/26 11:05:37;;;;;;;4.30;2.60;;;;;;;9.98;nan;96959.34;4899226;29;20547;-66
2023/04/26 11:08:07;;;;;;;2.87;2.50;;;;;;;9.79;nan;96952.81;4934082;28;20357;-66
2023/04/26 11:10:37;;;;;;;2.63;2.53;;;;;;;9.81;nan;96957.91;4952858;28;20706;-66
2023/04/26 11:13:06;;;;;;;3.23;2.50;;;;;;;9.58;nan;96961.50;4923432;28;20288;-66
2023/04/26 11:15:35;;;;;;;3.10;2.90;;;;;;;9.49;nan;96959.97;4943118;28;20349;-66
2023/04/26 11:18:04;;;;;;;3.30;3.00;;;;;;;9.94;nan;96959.91;4959211;28;20237;-67
2023/04/26 11:20:32;;;;;;;2.90;2.70;;;;;;;10.08;nan;96956.44;4946190;28;20202;-67
2023/04/26 11:23:00;;;;;;;2.97;2.73;;;;;;;10.27;nan;96940.94;4955272;28;21801;-68
2023/04/26 11:25:29;;;;;;;5.47;3.27;;;;;;;10.63;nan;96945.38;4958054;28;20403;-67
2023/04/26 11:28:00;;;;;;;3.67;3.07;;;;;;;10.42;nan;96952.34;4925296;28;20636;-67
2023/04/26 11:30:30;;;;;;;7.20;3.17;;;;;;;10.49;nan;96948.94;4928400;28;21867;-66
2023/04/26 11:32:58;;;;;;;5.73;3.17;;;;;;;10.38;nan;96945.72;4962749;28;20279;-67
2023/04/26 11:35:28;;;;;;;3.13;2.83;;;;;;;10.35;nan;96951.41;4960059;28;20427;-67
2023/04/26 11:37:58;;;;;;;7.60;2.90;;;;;;;10.45;nan;96943.19;4958213;28;20241;-66
2023/04/26 11:40:28;;;;;;;2.80;2.60;;;;;;;10.61;nan;96954.53;4958608;28;20462;-67
2023/04/26 11:42:59;;;;;;;4.10;3.73;;;;;;;10.60;nan;96952.88;4955437;28;20269;-66
2023/04/26 11:45:27;;;;;;;3.53;2.60;;;;;;;10.37;nan;96959.16;4893623;28;20248;-66
2023/04/26 11:47:57;;;;;;;2.70;2.50;;;;;;;9.89;nan;96955.19;4961062;28;20260;-67
2023/04/26 11:50:26;;;;;;;2.40;2.20;;;;;;;9.95;nan;96951.78;4955114;28;20217;-66
2023/04/26 11:52:55;;;;;;;4.73;3.23;;;;;;;10.18;nan;96944.72;4955330;28;20221;-66
2023/04/26 11:55:28;;;;;;;3.47;3.17;;;;;;;10.63;nan;96939.28;4958963;28;20237;-67
2023/04/26 11:57:56;;;;;;;3.03;2.83;;;;;;;10.91;nan;96941.13;4959045;28;20918;-67
2023/04/26 12:00:25;;;;;;;4.87;3.00;;;;;;;10.89;nan;96938.69;4901310;28;20323;-68
2023/04/26 12:02:53;;;;;;;3.90;2.80;;;;;;;10.96;nan;96936.88;4960878;28;20213;-66
2023/04/26 12:05:26;;;;;;;3.50;3.20;;;;;;;11.22;nan;96939.91;4958199;28;20209;-67
2023/04/26 12:07:56;;;;;;;3.20;2.97;;;;;;;11.00;nan;96935.50;4951721;28;20233;-66